Stewiacke, Canada
Current Conditions -  °F | °C
As of 12:00 PM on Friday 28 Nov 2014 (Local Time) from CYHZ Reporting Station
Overcast Overcast  
Wind Chill: 19°   Ceiling: 2100
Heat Index: 28°   Visibility: 15mi
Dew Point: 23°   Wind: 10mph
Humidity: 80%   Direction: 10°N
Pressure: 29.9"   Gusts: 17mph
Location:  45.13°N, 63.35°W
Report Text: CYHZ 281600Z 01009G15KT 15SM FEW013 OVC021 M02/M05 A2990 RMK SF2SC6 SLP132
Loading
Personal Weather Stations






























Interactive Weather Map New forecast layout! Learn more

10-Day Weather Forecast

Advertisements
Track Severe Weather on mobile